sensor_id;sensor_type;location;lat;lon;timestamp;temperature;humidity
23540;DHT22;11947;50.810;4.394;2023-07-13T00:01:13;17.30;99.90
23540;DHT22;11947;50.810;4.394;2023-07-13T00:03:38;17.10;99.90
23540;DHT22;11947;50.810;4.394;2023-07-13T00:06:07;17.10;99.90
23540;DHT22;11947;50.810;4.394;2023-07-13T00:08:32;17.00;99.90
23540;DHT22;11947;50.810;4.394;2023-07-13T00:11:00;17.10;99.90
23540;DHT22;11947;50.810;4.394;2023-07-13T00:13:25;17.00;99.90
23540;DHT22;11947;50.810;4.394;2023-07-13T00:15:51;17.00;99.90
23540;DHT22;11947;50.810;4.394;2023-07-13T00:18:17;17.00;99.90
23540;DHT22;11947;50.810;4.394;2023-07-13T00:20:42;17.00;99.90
23540;DHT22;11947;50.810;4.394;2023-07-13T00:23:08;16.90;99.90
23540;DHT22;11947;50.810;4.394;2023-07-13T00:25:34;16.90;99.90
23540;DHT22;11947;50.810;4.394;2023-07-13T00:28:00;16.80;99.90
23540;DHT22;11947;50.810;4.394;2023-07-13T00:30:26;16.80;99.90
23540;DHT22;11947;50.810;4.394;2023-07-13T00:32:52;16.80;99.90
23540;DHT22;11947;50.810;4.394;2023-07-13T00:35:17;16.80;99.90
23540;DHT22;11947;50.810;4.394;2023-07-13T00:37:43;16.70;99.90
23540;DHT22;11947;50.810;4.394;2023-07-13T00:40:11;16.70;99.90
23540;DHT22;11947;50.810;4.394;2023-07-13T00:42:37;16.80;99.90
23540;DHT22;11947;50.810;4.394;2023-07-13T00:47:38;16.70;99.90
23540;DHT22;11947;50.810;4.394;2023-07-13T00:50:09;16.50;99.90
23540;DHT22;11947;50.810;4.394;2023-07-13T00:52:37;16.50;99.90
23540;DHT22;11947;50.810;4.394;2023-07-13T00:55:03;16.50;99.90
23540;DHT22;11947;50.810;4.394;2023-07-13T00:57:29;16.50;99.90
23540;DHT22;11947;50.810;4.394;2023-07-13T00:59:59;16.50;99.90
23540;DHT22;11947;50.810;4.394;2023-07-13T01:02:33;16.50;99.90
23540;DHT22;11947;50.810;4.394;2023-07-13T01:04:59;16.40;99.90
23540;DHT22;11947;50.810;4.394;2023-07-13T01:07:25;16.40;99.90
23540;DHT22;11947;50.810;4.394;2023-07-13T01:09:51;16.40;99.90
23540;DHT22;11947;50.810;4.394;2023-07-13T01:12:16;16.40;99.90
23540;DHT22;11947;50.810;4.394;2023-07-13T01:14:43;16.40;99.90
23540;DHT22;11947;50.810;4.394;2023-07-13T01:17:12;16.40;99.90
23540;DHT22;11947;50.810;4.394;2023-07-13T01:19:44;16.30;99.90
23540;DHT22;11947;50.810;4.394;2023-07-13T01:22:16;16.30;99.90
23540;DHT22;11947;50.810;4.394;2023-07-13T01:24:44;16.20;99.90
23540;DHT22;11947;50.810;4.394;2023-07-13T01:27:12;16.20;99.90
23540;DHT22;11947;50.810;4.394;2023-07-13T01:29:40;16.30;99.90
23540;DHT22;11947;50.810;4.394;2023-07-13T01:32:21;16.30;99.90
23540;DHT22;11947;50.810;4.394;2023-07-13T01:34:50;16.30;99.90
23540;DHT22;11947;50.810;4.394;2023-07-13T01:37:16;16.30;99.90
23540;DHT22;11947;50.810;4.394;2023-07-13T01:39:42;16.30;99.90
23540;DHT22;11947;50.810;4.394;2023-07-13T01:42:08;16.20;99.90
23540;DHT22;11947;50.810;4.394;2023-07-13T01:44:34;16.20;99.90
23540;DHT22;11947;50.810;4.394;2023-07-13T01:47:01;16.20;99.90
23540;DHT22;11947;50.810;4.394;2023-07-13T01:49:26;16.20;99.90
23540;DHT22;11947;50.810;4.394;2023-07-13T01:51:52;16.20;99.90
23540;DHT22;11947;50.810;4.394;2023-07-13T01:54:18;16.30;99.90
23540;DHT22;11947;50.810;4.394;2023-07-13T01:56:43;16.10;99.90
23540;DHT22;11947;50.810;4.394;2023-07-13T01:59:09;16.10;99.90
23540;DHT22;11947;50.810;4.394;2023-07-13T02:01:35;16.00;99.90
23540;DHT22;11947;50.810;4.394;2023-07-13T02:04:01;16.10;99.90
23540;DHT22;11947;50.810;4.394;2023-07-13T02:06:26;16.10;99.90
23540;DHT22;11947;50.810;4.394;2023-07-13T02:08:52;16.10;99.90
23540;DHT22;11947;50.810;4.394;2023-07-13T02:11:18;16.00;99.90
23540;DHT22;11947;50.810;4.394;2023-07-13T02:13:44;16.00;99.90
23540;DHT22;11947;50.810;4.394;2023-07-13T02:16:10;16.00;99.90
23540;DHT22;11947;50.810;4.394;2023-07-13T02:18:35;16.20;99.90
23540;DHT22;11947;50.810;4.394;2023-07-13T02:21:01;16.10;99.90
23540;DHT22;11947;50.810;4.394;2023-07-13T02:23:28;16.20;99.90
23540;DHT22;11947;50.810;4.394;2023-07-13T02:25:57;16.10;99.90
23540;DHT22;11947;50.810;4.394;2023-07-13T02:28:23;16.10;99.90
23540;DHT22;11947;50.810;4.394;2023-07-13T02:30:49;16.00;99.90
23540;DHT22;11947;50.810;4.394;2023-07-13T02:33:15;16.00;99.90
23540;DHT22;11947;50.810;4.394;2023-07-13T02:35:41;15.90;99.90
23540;DHT22;11947;50.810;4.394;2023-07-13T02:38:07;15.90;99.90
23540;DHT22;11947;50.810;4.394;2023-07-13T02:40:34;15.90;99.90
23540;DHT22;11947;50.810;4.394;2023-07-13T02:43:01;15.80;99.90
23540;DHT22;11947;50.810;4.394;2023-07-13T02:45:27;15.90;99.90
23540;DHT22;11947;50.810;4.394;2023-07-13T02:47:53;15.90;99.90
23540;DHT22;11947;50.810;4.394;2023-07-13T02:50:18;15.90;99.90
23540;DHT22;11947;50.810;4.394;2023-07-13T02:52:44;15.80;99.90
23540;DHT22;11947;50.810;4.394;2023-07-13T02:55:10;15.90;99.90
23540;DHT22;11947;50.810;4.394;2023-07-13T02:57:35;15.80;99.90
23540;DHT22;11947;50.810;4.394;2023-07-13T03:00:03;15.80;99.90
23540;DHT22;11947;50.810;4.394;2023-07-13T03:02:31;15.70;99.90
23540;DHT22;11947;50.810;4.394;2023-07-13T03:04:57;15.70;99.90
23540;DHT22;11947;50.810;4.394;2023-07-13T03:07:23;15.70;99.90
23540;DHT22;11947;50.810;4.394;2023-07-13T03:09:49;15.60;99.90
23540;DHT22;11947;50.810;4.394;2023-07-13T03:12:18;15.70;99.90
23540;DHT22;11947;50.810;4.394;2023-07-13T03:14:44;15.70;99.90
23540;DHT22;11947;50.810;4.394;2023-07-13T03:17:09;15.70;99.90
23540;DHT22;11947;50.810;4.394;2023-07-13T03:19:35;15.70;99.90
23540;DHT22;11947;50.810;4.394;2023-07-13T03:22:01;15.60;99.90
23540;DHT22;11947;50.810;4.394;2023-07-13T03:24:26;15.70;99.90
23540;DHT22;11947;50.810;4.394;2023-07-13T03:26:52;15.70;99.90
23540;DHT22;11947;50.810;4.394;2023-07-13T03:29:18;15.70;99.90
23540;DHT22;11947;50.810;4.394;2023-07-13T03:31:43;15.60;99.90
23540;DHT22;11947;50.810;4.394;2023-07-13T03:34:09;15.60;99.90
23540;DHT22;11947;50.810;4.394;2023-07-13T03:36:34;15.60;99.90
23540;DHT22;11947;50.810;4.394;2023-07-13T03:39:02;15.70;99.90
23540;DHT22;11947;50.810;4.394;2023-07-13T03:41:28;15.60;99.90
23540;DHT22;11947;50.810;4.394;2023-07-13T03:43:54;15.60;99.90
23540;DHT22;11947;50.810;4.394;2023-07-13T03:46:20;15.70;99.90
23540;DHT22;11947;50.810;4.394;2023-07-13T03:48:47;15.70;99.90
23540;DHT22;11947;50.810;4.394;2023-07-13T03:51:14;15.70;99.90
23540;DHT22;11947;50.810;4.394;2023-07-13T03:53:43;15.60;99.90
23540;DHT22;11947;50.810;4.394;2023-07-13T03:56:09;15.80;99.90
23540;DHT22;11947;50.810;4.394;2023-07-13T03:58:40;15.80;99.90
23540;DHT22;11947;50.810;4.394;2023-07-13T04:01:07;15.90;99.90
23540;DHT22;11947;50.810;4.394;2023-07-13T04:03:34;16.00;99.90
23540;DHT22;11947;50.810;4.394;2023-07-13T04:06:04;16.00;99.90
23540;DHT22;11947;50.810;4.394;2023-07-13T04:08:33;16.00;99.90
23540;DHT22;11947;50.810;4.394;2023-07-13T04:10:59;16.10;99.90
23540;DHT22;11947;50.810;4.394;2023-07-13T04:13:25;16.10;99.90
23540;DHT22;11947;50.810;4.394;2023-07-13T04:15:53;16.20;99.90
23540;DHT22;11947;50.810;4.394;2023-07-13T04:18:19;16.20;99.90
23540;DHT22;11947;50.810;4.394;2023-07-13T04:20:46;16.30;99.90
23540;DHT22;11947;50.810;4.394;2023-07-13T04:23:12;16.30;99.90
23540;DHT22;11947;50.810;4.394;2023-07-13T04:25:37;16.40;99.90
23540;DHT22;11947;50.810;4.394;2023-07-13T04:28:04;16.40;99.90
23540;DHT22;11947;50.810;4.394;2023-07-13T04:30:30;16.50;99.90
23540;DHT22;11947;50.810;4.394;2023-07-13T04:32:55;16.60;99.90
23540;DHT22;11947;50.810;4.394;2023-07-13T04:35:22;16.60;99.90
23540;DHT22;11947;50.810;4.394;2023-07-13T04:37:50;16.60;99.90
23540;DHT22;11947;50.810;4.394;2023-07-13T04:40:17;16.60;99.90
23540;DHT22;11947;50.810;4.394;2023-07-13T04:42:44;16.70;99.90
23540;DHT22;11947;50.810;4.394;2023-07-13T04:45:11;16.70;99.90
23540;DHT22;11947;50.810;4.394;2023-07-13T04:47:37;16.80;99.90
23540;DHT22;11947;50.810;4.394;2023-07-13T04:50:03;16.90;99.90
23540;DHT22;11947;50.810;4.394;2023-07-13T04:52:30;16.80;99.90
23540;DHT22;11947;50.810;4.394;2023-07-13T04:54:55;16.90;99.90
23540;DHT22;11947;50.810;4.394;2023-07-13T04:57:21;16.90;99.90
23540;DHT22;11947;50.810;4.394;2023-07-13T04:59:46;16.90;99.90
23540;DHT22;11947;50.810;4.394;2023-07-13T05:02:12;16.80;99.90
23540;DHT22;11947;50.810;4.394;2023-07-13T05:04:38;16.80;99.90
23540;DHT22;11947;50.810;4.394;2023-07-13T05:07:04;16.90;99.90
23540;DHT22;11947;50.810;4.394;2023-07-13T05:09:30;16.90;99.90
23540;DHT22;11947;50.810;4.394;2023-07-13T05:11:56;17.00;99.90
23540;DHT22;11947;50.810;4.394;2023-07-13T05:14:21;17.00;99.90
23540;DHT22;11947;50.810;4.394;2023-07-13T05:16:47;16.90;99.90
23540;DHT22;11947;50.810;4.394;2023-07-13T05:19:12;16.90;99.90
23540;DHT22;11947;50.810;4.394;2023-07-13T05:21:38;16.90;99.90
23540;DHT22;11947;50.810;4.394;2023-07-13T05:24:04;17.00;99.90
23540;DHT22;11947;50.810;4.394;2023-07-13T05:26:30;17.10;99.90
23540;DHT22;11947;50.810;4.394;2023-07-13T05:28:56;17.20;99.90
23540;DHT22;11947;50.810;4.394;2023-07-13T05:31:21;17.30;99.90
23540;DHT22;11947;50.810;4.394;2023-07-13T05:33:47;17.40;99.90
23540;DHT22;11947;50.810;4.394;2023-07-13T05:36:12;17.40;99.90
23540;DHT22;11947;50.810;4.394;2023-07-13T05:38:38;17.50;99.90
23540;DHT22;11947;50.810;4.394;2023-07-13T05:41:04;17.50;99.90
23540;DHT22;11947;50.810;4.394;2023-07-13T05:43:29;17.60;99.90
23540;DHT22;11947;50.810;4.394;2023-07-13T05:45:56;17.70;99.90
23540;DHT22;11947;50.810;4.394;2023-07-13T05:48:22;17.60;99.90
23540;DHT22;11947;50.810;4.394;2023-07-13T05:50:48;17.50;99.90
23540;DHT22;11947;50.810;4.394;2023-07-13T05:53:15;17.60;99.90
23540;DHT22;11947;50.810;4.394;2023-07-13T05:55:44;17.60;99.90
23540;DHT22;11947;50.810;4.394;2023-07-13T05:58:13;17.70;99.90
23540;DHT22;11947;50.810;4.394;2023-07-13T06:00:38;17.80;99.90
23540;DHT22;11947;50.810;4.394;2023-07-13T06:03:04;17.70;99.90
23540;DHT22;11947;50.810;4.394;2023-07-13T06:05:32;17.70;99.90
23540;DHT22;11947;50.810;4.394;2023-07-13T06:07:59;17.80;99.90
23540;DHT22;11947;50.810;4.394;2023-07-13T06:10:24;17.80;99.90
23540;DHT22;11947;50.810;4.394;2023-07-13T06:12:50;17.80;99.90
23540;DHT22;11947;50.810;4.394;2023-07-13T06:15:16;17.80;99.90
23540;DHT22;11947;50.810;4.394;2023-07-13T06:17:42;17.90;99.90
23540;DHT22;11947;50.810;4.394;2023-07-13T06:20:08;18.10;99.90
23540;DHT22;11947;50.810;4.394;2023-07-13T06:22:33;18.20;99.90
23540;DHT22;11947;50.810;4.394;2023-07-13T06:24:59;18.30;99.90
23540;DHT22;11947;50.810;4.394;2023-07-13T06:27:25;18.30;99.90
23540;DHT22;11947;50.810;4.394;2023-07-13T06:29:50;18.50;99.90
23540;DHT22;11947;50.810;4.394;2023-07-13T06:32:16;18.50;99.90
23540;DHT22;11947;50.810;4.394;2023-07-13T06:34:42;18.50;99.90
23540;DHT22;11947;50.810;4.394;2023-07-13T06:37:09;18.50;99.90
23540;DHT22;11947;50.810;4.394;2023-07-13T06:39:35;18.60;99.90
23540;DHT22;11947;50.810;4.394;2023-07-13T06:42:00;18.50;99.90
23540;DHT22;11947;50.810;4.394;2023-07-13T06:44:26;18.70;99.90
23540;DHT22;11947;50.810;4.394;2023-07-13T06:46:51;18.80;99.90
23540;DHT22;11947;50.810;4.394;2023-07-13T06:49:17;19.00;99.90
23540;DHT22;11947;50.810;4.394;2023-07-13T06:51:43;19.20;99.90
23540;DHT22;11947;50.810;4.394;2023-07-13T06:54:08;19.30;99.90
23540;DHT22;11947;50.810;4.394;2023-07-13T06:56:34;19.30;99.90
23540;DHT22;11947;50.810;4.394;2023-07-13T06:59:00;19.20;99.90
23540;DHT22;11947;50.810;4.394;2023-07-13T07:01:25;19.20;99.90
23540;DHT22;11947;50.810;4.394;2023-07-13T07:03:51;19.30;99.90
23540;DHT22;11947;50.810;4.394;2023-07-13T07:06:19;19.40;99.90
23540;DHT22;11947;50.810;4.394;2023-07-13T07:08:45;19.50;99.90
23540;DHT22;11947;50.810;4.394;2023-07-13T07:11:17;19.60;99.90
23540;DHT22;11947;50.810;4.394;2023-07-13T07:13:44;19.60;99.90
23540;DHT22;11947;50.810;4.394;2023-07-13T07:16:10;19.50;99.90
23540;DHT22;11947;50.810;4.394;2023-07-13T07:18:36;19.50;99.90
23540;DHT22;11947;50.810;4.394;2023-07-13T07:21:02;19.50;99.90
23540;DHT22;11947;50.810;4.394;2023-07-13T07:23:28;19.60;99.90
23540;DHT22;11947;50.810;4.394;2023-07-13T07:25:54;19.80;99.90
23540;DHT22;11947;50.810;4.394;2023-07-13T07:28:20;19.80;99.90
23540;DHT22;11947;50.810;4.394;2023-07-13T07:30:47;19.80;99.90
23540;DHT22;11947;50.810;4.394;2023-07-13T07:33:14;19.90;99.90
23540;DHT22;11947;50.810;4.394;2023-07-13T07:35:39;19.90;99.90
23540;DHT22;11947;50.810;4.394;2023-07-13T07:38:05;19.90;99.90
23540;DHT22;11947;50.810;4.394;2023-07-13T07:40:31;19.90;99.90
23540;DHT22;11947;50.810;4.394;2023-07-13T07:42:57;20.00;99.90
23540;DHT22;11947;50.810;4.394;2023-07-13T07:45:23;20.00;99.90
23540;DHT22;11947;50.810;4.394;2023-07-13T07:47:49;20.10;99.90
23540;DHT22;11947;50.810;4.394;2023-07-13T07:50:15;20.20;99.90
23540;DHT22;11947;50.810;4.394;2023-07-13T07:52:41;20.30;99.90
23540;DHT22;11947;50.810;4.394;2023-07-13T07:55:07;20.30;99.90
23540;DHT22;11947;50.810;4.394;2023-07-13T07:57:33;20.50;99.90
23540;DHT22;11947;50.810;4.394;2023-07-13T07:59:59;20.60;99.90
23540;DHT22;11947;50.810;4.394;2023-07-13T08:02:25;20.90;99.90
23540;DHT22;11947;50.810;4.394;2023-07-13T08:04:51;21.10;99.90
23540;DHT22;11947;50.810;4.394;2023-07-13T08:07:17;21.10;99.90
23540;DHT22;11947;50.810;4.394;2023-07-13T08:09:42;21.30;99.90
23540;DHT22;11947;50.810;4.394;2023-07-13T08:12:08;21.60;99.90
23540;DHT22;11947;50.810;4.394;2023-07-13T08:14:34;21.90;99.90
23540;DHT22;11947;50.810;4.394;2023-07-13T08:16:59;22.10;99.90
23540;DHT22;11947;50.810;4.394;2023-07-13T08:19:25;22.20;99.90
23540;DHT22;11947;50.810;4.394;2023-07-13T08:21:51;22.50;99.90
23540;DHT22;11947;50.810;4.394;2023-07-13T08:24:16;22.80;99.90
23540;DHT22;11947;50.810;4.394;2023-07-13T08:26:44;23.00;99.90
23540;DHT22;11947;50.810;4.394;2023-07-13T08:29:11;23.30;99.90
23540;DHT22;11947;50.810;4.394;2023-07-13T08:31:37;23.50;99.90
23540;DHT22;11947;50.810;4.394;2023-07-13T08:34:02;23.10;99.90
23540;DHT22;11947;50.810;4.394;2023-07-13T08:36:28;23.30;99.90
23540;DHT22;11947;50.810;4.394;2023-07-13T08:38:54;23.20;99.90
23540;DHT22;11947;50.810;4.394;2023-07-13T08:41:20;23.00;99.90
23540;DHT22;11947;50.810;4.394;2023-07-13T08:43:50;23.00;99.90
23540;DHT22;11947;50.810;4.394;2023-07-13T08:46:27;23.30;99.90
23540;DHT22;11947;50.810;4.394;2023-07-13T08:48:59;23.10;99.90
23540;DHT22;11947;50.810;4.394;2023-07-13T08:54:31;23.00;99.90
23540;DHT22;11947;50.810;4.394;2023-07-13T08:57:00;23.00;99.90
23540;DHT22;11947;50.810;4.394;2023-07-13T08:59:30;23.40;99.90
23540;DHT22;11947;50.810;4.394;2023-07-13T09:04:51;23.80;99.90
23540;DHT22;11947;50.810;4.394;2023-07-13T09:12:51;23.50;99.90
23540;DHT22;11947;50.810;4.394;2023-07-13T09:15:48;23.70;99.90
23540;DHT22;11947;50.810;4.394;2023-07-13T09:18:35;23.90;99.90
23540;DHT22;11947;50.810;4.394;2023-07-13T09:21:03;24.20;99.90
23540;DHT22;11947;50.810;4.394;2023-07-13T09:23:31;24.50;99.90
23540;DHT22;11947;50.810;4.394;2023-07-13T09:28:33;25.40;99.90
23540;DHT22;11947;50.810;4.394;2023-07-13T09:31:11;25.40;99.90
23540;DHT22;11947;50.810;4.394;2023-07-13T09:33:39;25.70;99.90
23540;DHT22;11947;50.810;4.394;2023-07-13T09:36:29;25.80;99.90
23540;DHT22;11947;50.810;4.394;2023-07-13T09:44:12;24.90;99.90
23540;DHT22;11947;50.810;4.394;2023-07-13T09:46:43;24.60;99.90
23540;DHT22;11947;50.810;4.394;2023-07-13T09:49:12;24.80;99.90
23540;DHT22;11947;50.810;4.394;2023-07-13T09:51:40;25.10;99.90
23540;DHT22;11947;50.810;4.394;2023-07-13T09:54:20;25.40;99.90
23540;DHT22;11947;50.810;4.394;2023-07-13T09:56:46;25.90;99.90
23540;DHT22;11947;50.810;4.394;2023-07-13T09:59:22;26.20;99.90
23540;DHT22;11947;50.810;4.394;2023-07-13T10:01:49;26.10;99.90
23540;DHT22;11947;50.810;4.394;2023-07-13T10:04:18;26.00;99.90
23540;DHT22;11947;50.810;4.394;2023-07-13T10:06:46;25.60;99.90
23540;DHT22;11947;50.810;4.394;2023-07-13T10:09:17;25.50;99.90
23540;DHT22;11947;50.810;4.394;2023-07-13T10:11:43;25.20;99.90
23540;DHT22;11947;50.810;4.394;2023-07-13T10:14:16;24.70;99.90
23540;DHT22;11947;50.810;4.394;2023-07-13T10:16:44;24.40;99.90
23540;DHT22;11947;50.810;4.394;2023-07-13T10:19:21;24.10;99.90
23540;DHT22;11947;50.810;4.394;2023-07-13T10:21:55;24.20;99.90
23540;DHT22;11947;50.810;4.394;2023-07-13T10:24:30;24.80;99.90
23540;DHT22;11947;50.810;4.394;2023-07-13T10:27:01;25.80;99.90
23540;DHT22;11947;50.810;4.394;2023-07-13T10:29:32;26.70;99.90
23540;DHT22;11947;50.810;4.394;2023-07-13T10:32:00;28.10;99.90
23540;DHT22;11947;50.810;4.394;2023-07-13T10:34:26;29.40;99.90
23540;DHT22;11947;50.810;4.394;2023-07-13T10:36:52;30.60;99.90
23540;DHT22;11947;50.810;4.394;2023-07-13T10:39:24;30.80;99.90
23540;DHT22;11947;50.810;4.394;2023-07-13T10:41:54;31.80;99.90
23540;DHT22;11947;50.810;4.394;2023-07-13T10:44:30;31.80;99.90
23540;DHT22;11947;50.810;4.394;2023-07-13T10:47:00;32.10;99.90
23540;DHT22;11947;50.810;4.394;2023-07-13T10:49:28;32.10;99.90
23540;DHT22;11947;50.810;4.394;2023-07-13T10:51:54;30.70;99.90
23540;DHT22;11947;50.810;4.394;2023-07-13T10:54:22;29.90;99.90
23540;DHT22;11947;50.810;4.394;2023-07-13T10:57:21;29.20;99.90
23540;DHT22;11947;50.810;4.394;2023-07-13T11:02:28;27.90;99.90
23540;DHT22;11947;50.810;4.394;2023-07-13T11:04:56;27.50;99.90
23540;DHT22;11947;50.810;4.394;2023-07-13T11:07:28;28.00;99.90
23540;DHT22;11947;50.810;4.394;2023-07-13T11:09:56;28.80;99.90
23540;DHT22;11947;50.810;4.394;2023-07-13T11:20:22;31.70;99.00
23540;DHT22;11947;50.810;4.394;2023-07-13T11:22:50;32.50;97.70
23540;DHT22;11947;50.810;4.394;2023-07-13T11:27:50;33.20;97.30
23540;DHT22;11947;50.810;4.394;2023-07-13T11:30:31;33.90;94.90
23540;DHT22;11947;50.810;4.394;2023-07-13T11:33:17;33.40;94.20
23540;DHT22;11947;50.810;4.394;2023-07-13T11:35:59;32.90;94.20
23540;DHT22;11947;50.810;4.394;2023-07-13T11:38:44;32.60;94.60
23540;DHT22;11947;50.810;4.394;2023-07-13T11:41:22;31.30;95.90
23540;DHT22;11947;50.810;4.394;2023-07-13T11:44:05;30.20;97.10
23540;DHT22;11947;50.810;4.394;2023-07-13T11:46:31;29.00;98.20
23540;DHT22;11947;50.810;4.394;2023-07-13T11:48:56;28.10;99.90
23540;DHT22;11947;50.810;4.394;2023-07-13T11:51:28;27.50;99.90
23540;DHT22;11947;50.810;4.394;2023-07-13T11:53:56;26.50;99.90
23540;DHT22;11947;50.810;4.394;2023-07-13T11:56:25;26.00;99.90
23540;DHT22;11947;50.810;4.394;2023-07-13T11:58:56;25.60;99.90
23540;DHT22;11947;50.810;4.394;2023-07-13T12:01:25;25.20;99.90
23540;DHT22;11947;50.810;4.394;2023-07-13T12:03:53;24.90;99.90
23540;DHT22;11947;50.810;4.394;2023-07-13T12:06:27;24.60;99.90
23540;DHT22;11947;50.810;4.394;2023-07-13T12:09:03;24.50;99.90
23540;DHT22;11947;50.810;4.394;2023-07-13T12:11:29;24.60;99.90
23540;DHT22;11947;50.810;4.394;2023-07-13T12:13:55;24.60;99.90
23540;DHT22;11947;50.810;4.394;2023-07-13T12:16:30;25.10;99.90
23540;DHT22;11947;50.810;4.394;2023-07-13T12:18:59;26.40;99.90
23540;DHT22;11947;50.810;4.394;2023-07-13T12:21:36;27.00;99.90
23540;DHT22;11947;50.810;4.394;2023-07-13T12:24:03;26.60;99.90
23540;DHT22;11947;50.810;4.394;2023-07-13T12:26:30;26.40;99.90
23540;DHT22;11947;50.810;4.394;2023-07-13T12:28:59;26.30;99.90
23540;DHT22;11947;50.810;4.394;2023-07-13T12:31:31;26.00;99.90
23540;DHT22;11947;50.810;4.394;2023-07-13T12:34:09;25.60;99.90
23540;DHT22;11947;50.810;4.394;2023-07-13T12:36:39;25.20;99.90
23540;DHT22;11947;50.810;4.394;2023-07-13T12:39:22;24.70;99.90
23540;DHT22;11947;50.810;4.394;2023-07-13T12:41:50;24.60;99.90
23540;DHT22;11947;50.810;4.394;2023-07-13T12:44:18;24.40;99.90
23540;DHT22;11947;50.810;4.394;2023-07-13T12:47:04;24.20;99.90
23540;DHT22;11947;50.810;4.394;2023-07-13T12:49:32;23.80;99.90
23540;DHT22;11947;50.810;4.394;2023-07-13T12:52:02;23.20;99.90
23540;DHT22;11947;50.810;4.394;2023-07-13T12:54:30;22.50;99.90
23540;DHT22;11947;50.810;4.394;2023-07-13T12:56:58;21.70;99.90
23540;DHT22;11947;50.810;4.394;2023-07-13T12:59:29;21.20;99.90
23540;DHT22;11947;50.810;4.394;2023-07-13T13:01:55;20.70;99.90
23540;DHT22;11947;50.810;4.394;2023-07-13T13:04:21;20.50;99.90
23540;DHT22;11947;50.810;4.394;2023-07-13T13:06:48;20.30;99.90
23540;DHT22;11947;50.810;4.394;2023-07-13T13:09:15;20.10;99.90
23540;DHT22;11947;50.810;4.394;2023-07-13T13:11:41;20.10;99.90
23540;DHT22;11947;50.810;4.394;2023-07-13T13:14:07;21.00;99.90
23540;DHT22;11947;50.810;4.394;2023-07-13T13:16:37;22.90;99.90
23540;DHT22;11947;50.810;4.394;2023-07-13T13:19:16;24.50;99.90
23540;DHT22;11947;50.810;4.394;2023-07-13T13:21:45;24.80;99.90
23540;DHT22;11947;50.810;4.394;2023-07-13T13:24:18;24.60;99.90
23540;DHT22;11947;50.810;4.394;2023-07-13T13:26:45;24.20;99.90
23540;DHT22;11947;50.810;4.394;2023-07-13T13:29:20;23.80;99.90
23540;DHT22;11947;50.810;4.394;2023-07-13T13:31:46;23.60;99.90
23540;DHT22;11947;50.810;4.394;2023-07-13T13:34:15;23.60;99.90
23540;DHT22;11947;50.810;4.394;2023-07-13T13:36:41;24.10;99.90
23540;DHT22;11947;50.810;4.394;2023-07-13T13:39:24;24.70;99.90
23540;DHT22;11947;50.810;4.394;2023-07-13T13:41:52;24.90;99.90
23540;DHT22;11947;50.810;4.394;2023-07-13T13:44:19;25.20;99.90
23540;DHT22;11947;50.810;4.394;2023-07-13T13:46:47;25.50;99.90
23540;DHT22;11947;50.810;4.394;2023-07-13T13:49:18;26.60;99.90
23540;DHT22;11947;50.810;4.394;2023-07-13T13:51:45;27.30;99.90
23540;DHT22;11947;50.810;4.394;2023-07-13T13:54:15;27.90;99.90
23540;DHT22;11947;50.810;4.394;2023-07-13T13:56:43;27.80;99.90
23540;DHT22;11947;50.810;4.394;2023-07-13T13:59:09;27.30;99.90
23540;DHT22;11947;50.810;4.394;2023-07-13T14:01:35;26.80;99.90
23540;DHT22;11947;50.810;4.394;2023-07-13T14:04:01;26.10;99.90
23540;DHT22;11947;50.810;4.394;2023-07-13T14:06:27;25.60;99.90
23540;DHT22;11947;50.810;4.394;2023-07-13T14:08:53;25.10;99.90
23540;DHT22;11947;50.810;4.394;2023-07-13T14:11:21;24.60;99.90
23540;DHT22;11947;50.810;4.394;2023-07-13T14:13:55;24.20;99.90
23540;DHT22;11947;50.810;4.394;2023-07-13T14:16:24;23.80;99.90
23540;DHT22;11947;50.810;4.394;2023-07-13T14:19:13;23.60;99.90
23540;DHT22;11947;50.810;4.394;2023-07-13T14:21:41;23.50;99.90
23540;DHT22;11947;50.810;4.394;2023-07-13T14:24:07;23.30;99.90
23540;DHT22;11947;50.810;4.394;2023-07-13T14:26:37;23.00;99.90
23540;DHT22;11947;50.810;4.394;2023-07-13T14:29:11;22.50;99.90
23540;DHT22;11947;50.810;4.394;2023-07-13T14:31:38;21.90;99.90
23540;DHT22;11947;50.810;4.394;2023-07-13T14:34:12;21.60;99.90
23540;DHT22;11947;50.810;4.394;2023-07-13T14:36:48;21.50;99.90
23540;DHT22;11947;50.810;4.394;2023-07-13T14:39:22;21.30;99.90
23540;DHT22;11947;50.810;4.394;2023-07-13T14:41:51;21.20;99.90
23540;DHT22;11947;50.810;4.394;2023-07-13T14:44:25;21.00;99.90
23540;DHT22;11947;50.810;4.394;2023-07-13T14:46:52;20.90;99.90
23540;DHT22;11947;50.810;4.394;2023-07-13T14:49:53;21.00;99.90
23540;DHT22;11947;50.810;4.394;2023-07-13T14:52:21;21.30;99.90
23540;DHT22;11947;50.810;4.394;2023-07-13T14:54:46;21.40;99.90
23540;DHT22;11947;50.810;4.394;2023-07-13T14:57:17;21.40;99.90
23540;DHT22;11947;50.810;4.394;2023-07-13T14:59:44;21.60;99.90
23540;DHT22;11947;50.810;4.394;2023-07-13T15:04:51;22.00;99.90
23540;DHT22;11947;50.810;4.394;2023-07-13T15:07:17;22.20;99.90
23540;DHT22;11947;50.810;4.394;2023-07-13T15:09:44;22.40;99.90
23540;DHT22;11947;50.810;4.394;2023-07-13T15:12:10;22.60;99.90
23540;DHT22;11947;50.810;4.394;2023-07-13T15:14:36;22.80;99.90
23540;DHT22;11947;50.810;4.394;2023-07-13T15:17:01;22.90;99.90
23540;DHT22;11947;50.810;4.394;2023-07-13T15:19:27;22.90;99.90
23540;DHT22;11947;50.810;4.394;2023-07-13T15:21:57;23.10;99.90
23540;DHT22;11947;50.810;4.394;2023-07-13T15:24:23;23.40;99.90
23540;DHT22;11947;50.810;4.394;2023-07-13T15:26:49;23.60;99.90
23540;DHT22;11947;50.810;4.394;2023-07-13T15:29:17;23.60;99.90
23540;DHT22;11947;50.810;4.394;2023-07-13T15:31:43;23.60;99.90
23540;DHT22;11947;50.810;4.394;2023-07-13T15:34:15;23.70;99.90
23540;DHT22;11947;50.810;4.394;2023-07-13T15:36:47;23.60;99.90
23540;DHT22;11947;50.810;4.394;2023-07-13T15:39:17;23.50;99.90
23540;DHT22;11947;50.810;4.394;2023-07-13T15:41:43;23.60;99.90
23540;DHT22;11947;50.810;4.394;2023-07-13T15:44:29;23.60;99.90
23540;DHT22;11947;50.810;4.394;2023-07-13T15:46:56;23.70;99.90
23540;DHT22;11947;50.810;4.394;2023-07-13T15:49:22;23.80;99.90
23540;DHT22;11947;50.810;4.394;2023-07-13T15:51:48;23.60;99.90
23540;DHT22;11947;50.810;4.394;2023-07-13T15:54:16;23.50;99.90
23540;DHT22;11947;50.810;4.394;2023-07-13T15:56:42;23.50;99.90
23540;DHT22;11947;50.810;4.394;2023-07-13T15:59:10;23.60;99.90
23540;DHT22;11947;50.810;4.394;2023-07-13T16:01:38;23.70;99.90
23540;DHT22;11947;50.810;4.394;2023-07-13T16:04:07;23.70;99.90
23540;DHT22;11947;50.810;4.394;2023-07-13T16:06:35;23.50;99.90
23540;DHT22;11947;50.810;4.394;2023-07-13T16:09:02;23.40;99.90
23540;DHT22;11947;50.810;4.394;2023-07-13T16:11:34;23.60;99.90
23540;DHT22;11947;50.810;4.394;2023-07-13T16:14:00;23.60;99.90